Hlavní strana
METAR-TAF:

METAR-TAF

Letiště :

Daşoguz, Turkmenistán

zeměpisná šířka: 41-45-53N, zeměpisná délka: 059-49-59E, výška: 83 m

Aktuální stav počasí

Zpráva byla vytvořena před 1 hodinou a 18 minutami, v 01:00 UTC
Západní vítr 10 kt
Teplota 9°C
Vlhkost vzduchu 87%
Tlak 1019 hPa
Viditelnost 10 km a více
Oblačno až skoro zataženo ve výšce 1500 ft
Zataženo ve výšce 10000 ft

METAR: UTAT 220100Z 26010KT 9999 BKN015 OVC100 09/07 Q1019 R26/CLRD70 NOSIG

Čas: 07:18 (02:18 UTC)

Předpověď počasí

Zpráva byla vytvořena před 3 hodinami a 40 minutami, v 22:38 UTC
Předpověď platná od 22 v 00 UTC do 22 v 24 UTC
Jihozápadní vítr 14 kt
Viditelnost 10 km a více
Polojasno ve výšce 2000 ft, Cumulonimbus.
Zataženo ve výšce 2000 ft
Dočasný
od 22 v 00 UTC do 22 v 06 UTC
vítr z různých směrů 10 kt
Viditelnost: 5000 m
Oblačno až skoro zataženo ve výšce 500 ft
slabé dešťové přeháňky, kouřmo

TAF: UTAT 212238Z 2200/2224 23014KT 9999 SCT020CB OVC020 530005 TEMPO 2200/2206 VRB10KT 5000 -SHRA BR BKN005

Stav a předpovědi počasí z více než 4 000 letišť (zprávy METAR a TAF).

Červené a žluté tečky na mapě představují dostupné meteorologické stanice.

Když kurzor umístíte na tečku, zobrazí se název stanice.

Pak kliknutím zobrazíte stav a předpověď počasí.

Chcete-li změnit mapu, kliknutím na zelené tlačítko se znaménkem +mapu přiblížíte, kliknutím na zelené tlačítko se znaménkem – mapu oddálíte a kliknutím na zelené šipky přejdete na sousední mapy.


METAR-TAF: